Westerville, NE (68881)

12:01 AM CDT on April 02, 2015 (GMT -0500)
KNEANSLE2 | | Change Station
CLOSE
Current Station
Personal Weather Station
Location: Ansley, NE
Elevation: 2320 ft
Nearby Weather Stations

Elev 2320 ft 41.29 °N, 99.38 °W | Updated 1 minute ago

Overcast
Overcast
56.6 °F
Feels Like 56.6 °F
N
7.0
Wind Variable Wind from NE
Gusts 18.0 mph

Today
High -- | Low -- °F
--% Chance of Precip.
Yesterday
High -- | Low -- °F
Precip. -- in
7:19 AM 8:03 PM
Waxing Gibbous, 95% visible
Pressure 29.80 in
Visibility 10.0 miles
Clouds Scattered Clouds 6500 ft
Overcast 9000 ft
Dew Point 27 °F
Humidity 32%
Rainfall in
Snow Depth Not available.
UV 0 out of 12
Pollen 9.50 out of 12
Air Quality Not available.
Flu Activity Not available.
METAR KBBW 020453Z AUTO 01015G22KT 10SM SCT065 OVC090 13/M04 A2984 RMK AO2 PK WND 34030/0354 SLP090 T01331039

More Conditions Fewer Conditions

Pressure 29.80 in
Visibility 10.0 miles
Clouds Scattered Clouds 6500 ft
Overcast 9000 ft
Dew Point 27 °F
Humidity 32%
Rainfall in
Snow Depth Not available.
UV 0 out of 12
Pollen 9.50 out of 12
Air Quality Not available.
Flu Activity Not available.
METAR KBBW 020453Z AUTO 01015G22KT 10SM SCT065 OVC090 13/M04 A2984 RMK AO2 PK WND 34030/0354 SLP090 T01331039

More Conditions Fewer Conditions

10-Day Weather Forecast

Almanac

Astronomy

Apr. 02, 2015 Rise Set
Actual Time
Civil Twilight
Nautical Twilight
Astronomical Twilight
Moon
Length of Visible Light
Length of Day
Tomorrow will be .
, % of the Moon is Illuminated

Today's Extremes

State Highs State Lows

Community

WunderPhotos

Upload Photos

1,810,199 photos uploaded!

WunderBlogs® & News

Nearby

Air Quality

  Air Quality AQ Index Pollutant
Not available.

Snow Depth

Station Depth Elevation

Earthquake Activity

City Distance Mag. Time & Date
Minimum magnitude displayed is 2.5.

Coastal Water Temperatures

Place Temperature

Stations

Nearby Weather Stations

Station Location Temp. Windchill Dew Point Humidity Wind Precip. Elev Updated Type